Murzuq, Libya
Current Conditions -  °F | °C
As of 1:00 PM on Tuesday 21 Oct 2014 (Local Time) from DAUZ Reporting Station
Clear Clear  
Wind Chill: 81°   Ceiling: Unl
Heat Index: 81°   Visibility: 6mi
Dew Point: 41°   Wind: 0mph
Humidity: 24%   Direction: NA
Pressure: 30.12"   Gusts: NA
Location:  25.97°N, 14.05°E
Report Text: DAUZ 211000Z 00000KT CAVOK 27/05 Q1020
Loading
Personal Weather Stations






























Interactive Weather Map
Tropical Storm Tracking
New forecast layout! Learn more

10-Day Weather Forecast

Advertisements
Track Severe Weather on mobile